Corbins Corner, Connecticut
Current Conditions -  °F | °C
As of 4:00 PM on Sunday 21 Dec 2014 (Local Time) from KHFD Reporting Station
Overcast Overcast  
Wind Chill: 27°   Ceiling: 1100
Heat Index: 34°   Visibility: 8mi
Dew Point: 30°   Wind: 9mph
Humidity: 85%   Direction: 10°N
Pressure: 30.3"   Gusts: NA
Location:  41.7325°N, 72.7334°W
Report Text: KHFD 212100Z 01008KT 8SM OVC011 01/M01 A3030 RMK AO2 CIG 008V014 T00111011
Loading
Personal Weather Stations






























Interactive Weather Map New forecast layout! Learn more

10-Day Weather Forecast

Advertisements
Track Severe Weather on mobile